sensor_id;sensor_type;location;lat;lon;timestamp;P1;durP1;ratioP1;P2;durP2;ratioP2
61407;SDS011;47274;43.054;25.146;2023-06-22T00:01:31;19.92;;;11.20;;
61407;SDS011;47274;43.054;25.146;2023-06-22T00:03:57;19.35;;;10.75;;
61407;SDS011;47274;43.054;25.146;2023-06-22T00:06:22;19.52;;;9.90;;
61407;SDS011;47274;43.054;25.146;2023-06-22T00:08:48;18.45;;;9.80;;
61407;SDS011;47274;43.054;25.146;2023-06-22T00:11:14;16.63;;;9.43;;
61407;SDS011;47274;43.054;25.146;2023-06-22T00:13:40;18.33;;;9.55;;
61407;SDS011;47274;43.054;25.146;2023-06-22T00:16:06;19.75;;;11.00;;
61407;SDS011;47274;43.054;25.146;2023-06-22T00:18:36;19.85;;;11.07;;
61407;SDS011;47274;43.054;25.146;2023-06-22T00:21:02;21.60;;;12.02;;
61407;SDS011;47274;43.054;25.146;2023-06-22T00:23:29;19.73;;;11.65;;
61407;SDS011;47274;43.054;25.146;2023-06-22T00:25:59;19.70;;;11.15;;
61407;SDS011;47274;43.054;25.146;2023-06-22T00:28:25;18.58;;;10.45;;
61407;SDS011;47274;43.054;25.146;2023-06-22T00:30:51;17.73;;;9.85;;
61407;SDS011;47274;43.054;25.146;2023-06-22T00:33:17;17.67;;;9.82;;
61407;SDS011;47274;43.054;25.146;2023-06-22T00:35:43;17.30;;;9.32;;
61407;SDS011;47274;43.054;25.146;2023-06-22T00:38:09;17.85;;;9.43;;
61407;SDS011;47274;43.054;25.146;2023-06-22T00:40:35;17.63;;;9.38;;
61407;SDS011;47274;43.054;25.146;2023-06-22T00:43:02;16.67;;;9.35;;
61407;SDS011;47274;43.054;25.146;2023-06-22T00:45:28;16.88;;;9.40;;
61407;SDS011;47274;43.054;25.146;2023-06-22T00:47:56;16.27;;;8.60;;
61407;SDS011;47274;43.054;25.146;2023-06-22T00:50:27;16.08;;;8.80;;
61407;SDS011;47274;43.054;25.146;2023-06-22T00:52:59;16.80;;;8.27;;
61407;SDS011;47274;43.054;25.146;2023-06-22T00:55:34;17.55;;;8.75;;
61407;SDS011;47274;43.054;25.146;2023-06-22T00:58:03;16.48;;;8.85;;
61407;SDS011;47274;43.054;25.146;2023-06-22T01:00:33;17.35;;;8.57;;
61407;SDS011;47274;43.054;25.146;2023-06-22T01:02:59;14.77;;;8.43;;
61407;SDS011;47274;43.054;25.146;2023-06-22T01:05:25;15.80;;;8.73;;
61407;SDS011;47274;43.054;25.146;2023-06-22T01:08:00;15.50;;;8.20;;
61407;SDS011;47274;43.054;25.146;2023-06-22T01:16:30;16.25;;;8.98;;
61407;SDS011;47274;43.054;25.146;2023-06-22T01:19:00;18.42;;;9.82;;
61407;SDS011;47274;43.054;25.146;2023-06-22T01:29:39;16.75;;;9.38;;
61407;SDS011;47274;43.054;25.146;2023-06-22T01:32:08;17.55;;;10.10;;
61407;SDS011;47274;43.054;25.146;2023-06-22T01:34:36;18.42;;;9.38;;
61407;SDS011;47274;43.054;25.146;2023-06-22T01:37:05;15.05;;;8.52;;
61407;SDS011;47274;43.054;25.146;2023-06-22T01:39:35;15.35;;;8.40;;
61407;SDS011;47274;43.054;25.146;2023-06-22T01:42:02;18.40;;;9.55;;
61407;SDS011;47274;43.054;25.146;2023-06-22T01:44:30;17.58;;;9.32;;
61407;SDS011;47274;43.054;25.146;2023-06-22T01:46:57;16.63;;;8.57;;
61407;SDS011;47274;43.054;25.146;2023-06-22T01:49:23;19.15;;;8.90;;
61407;SDS011;47274;43.054;25.146;2023-06-22T01:51:50;18.13;;;9.40;;
61407;SDS011;47274;43.054;25.146;2023-06-22T01:54:16;17.85;;;9.85;;
61407;SDS011;47274;43.054;25.146;2023-06-22T01:56:42;18.10;;;9.77;;
61407;SDS011;47274;43.054;25.146;2023-06-22T02:01:42;16.38;;;9.10;;
61407;SDS011;47274;43.054;25.146;2023-06-22T02:04:13;17.95;;;9.57;;
61407;SDS011;47274;43.054;25.146;2023-06-22T02:06:47;18.00;;;8.68;;
61407;SDS011;47274;43.054;25.146;2023-06-22T02:09:17;16.73;;;8.70;;
61407;SDS011;47274;43.054;25.146;2023-06-22T02:11:46;17.83;;;8.73;;
61407;SDS011;47274;43.054;25.146;2023-06-22T02:14:14;14.95;;;7.90;;
61407;SDS011;47274;43.054;25.146;2023-06-22T02:16:41;14.55;;;7.90;;
61407;SDS011;47274;43.054;25.146;2023-06-22T02:19:07;13.70;;;7.72;;
61407;SDS011;47274;43.054;25.146;2023-06-22T02:21:33;14.52;;;7.50;;
61407;SDS011;47274;43.054;25.146;2023-06-22T02:23:59;15.88;;;8.20;;
61407;SDS011;47274;43.054;25.146;2023-06-22T02:26:25;16.77;;;8.80;;
61407;SDS011;47274;43.054;25.146;2023-06-22T02:28:52;13.75;;;7.60;;
61407;SDS011;47274;43.054;25.146;2023-06-22T02:31:19;14.88;;;8.07;;
61407;SDS011;47274;43.054;25.146;2023-06-22T02:33:45;13.35;;;7.35;;
61407;SDS011;47274;43.054;25.146;2023-06-22T02:36:12;14.40;;;7.40;;
61407;SDS011;47274;43.054;25.146;2023-06-22T02:38:41;16.10;;;8.20;;
61407;SDS011;47274;43.054;25.146;2023-06-22T02:41:16;17.17;;;8.10;;
61407;SDS011;47274;43.054;25.146;2023-06-22T02:43:48;14.23;;;7.57;;
61407;SDS011;47274;43.054;25.146;2023-06-22T02:46:13;13.93;;;7.40;;
61407;SDS011;47274;43.054;25.146;2023-06-22T02:48:41;13.18;;;7.13;;
61407;SDS011;47274;43.054;25.146;2023-06-22T02:51:07;13.35;;;7.00;;
61407;SDS011;47274;43.054;25.146;2023-06-22T02:53:36;15.32;;;8.48;;
61407;SDS011;47274;43.054;25.146;2023-06-22T02:56:02;14.10;;;7.68;;
61407;SDS011;47274;43.054;25.146;2023-06-22T03:01:06;15.40;;;8.05;;
61407;SDS011;47274;43.054;25.146;2023-06-22T03:03:33;15.15;;;7.97;;
61407;SDS011;47274;43.054;25.146;2023-06-22T03:05:59;15.60;;;8.15;;
61407;SDS011;47274;43.054;25.146;2023-06-22T03:08:28;14.27;;;7.75;;
61407;SDS011;47274;43.054;25.146;2023-06-22T03:10:55;15.23;;;8.10;;
61407;SDS011;47274;43.054;25.146;2023-06-22T03:13:22;14.13;;;8.18;;
61407;SDS011;47274;43.054;25.146;2023-06-22T03:15:49;15.95;;;8.25;;
61407;SDS011;47274;43.054;25.146;2023-06-22T03:18:15;15.30;;;7.95;;
61407;SDS011;47274;43.054;25.146;2023-06-22T03:20:41;14.43;;;7.78;;
61407;SDS011;47274;43.054;25.146;2023-06-22T03:23:08;14.88;;;7.35;;
61407;SDS011;47274;43.054;25.146;2023-06-22T03:25:34;14.15;;;7.88;;
61407;SDS011;47274;43.054;25.146;2023-06-22T03:28:02;14.90;;;7.85;;
61407;SDS011;47274;43.054;25.146;2023-06-22T03:30:28;14.15;;;7.30;;
61407;SDS011;47274;43.054;25.146;2023-06-22T03:32:54;16.63;;;7.93;;
61407;SDS011;47274;43.054;25.146;2023-06-22T03:35:20;16.45;;;8.70;;
61407;SDS011;47274;43.054;25.146;2023-06-22T03:37:47;14.35;;;7.70;;
61407;SDS011;47274;43.054;25.146;2023-06-22T03:40:13;13.20;;;7.45;;
61407;SDS011;47274;43.054;25.146;2023-06-22T03:42:39;15.20;;;7.65;;
61407;SDS011;47274;43.054;25.146;2023-06-22T03:45:05;12.70;;;7.13;;
61407;SDS011;47274;43.054;25.146;2023-06-22T03:47:32;13.65;;;7.47;;
61407;SDS011;47274;43.054;25.146;2023-06-22T03:49:59;14.05;;;7.72;;
61407;SDS011;47274;43.054;25.146;2023-06-22T03:52:25;14.45;;;7.78;;
61407;SDS011;47274;43.054;25.146;2023-06-22T03:54:51;14.35;;;7.57;;
61407;SDS011;47274;43.054;25.146;2023-06-22T03:57:17;14.45;;;7.88;;
61407;SDS011;47274;43.054;25.146;2023-06-22T03:59:42;13.35;;;7.28;;
61407;SDS011;47274;43.054;25.146;2023-06-22T04:02:08;14.82;;;7.65;;
61407;SDS011;47274;43.054;25.146;2023-06-22T04:04:34;15.68;;;7.78;;
61407;SDS011;47274;43.054;25.146;2023-06-22T04:07:03;13.25;;;7.15;;
61407;SDS011;47274;43.054;25.146;2023-06-22T04:09:33;13.02;;;7.20;;
61407;SDS011;47274;43.054;25.146;2023-06-22T04:11:59;13.10;;;7.68;;
61407;SDS011;47274;43.054;25.146;2023-06-22T04:14:25;15.32;;;7.38;;
61407;SDS011;47274;43.054;25.146;2023-06-22T04:16:51;13.27;;;6.97;;
61407;SDS011;47274;43.054;25.146;2023-06-22T04:19:17;16.10;;;7.70;;
61407;SDS011;47274;43.054;25.146;2023-06-22T04:21:43;13.45;;;7.30;;
61407;SDS011;47274;43.054;25.146;2023-06-22T04:24:10;13.30;;;7.13;;
61407;SDS011;47274;43.054;25.146;2023-06-22T04:26:39;14.50;;;7.45;;
61407;SDS011;47274;43.054;25.146;2023-06-22T04:29:07;13.07;;;7.38;;
61407;SDS011;47274;43.054;25.146;2023-06-22T04:31:36;11.75;;;6.63;;
61407;SDS011;47274;43.054;25.146;2023-06-22T04:34:03;13.77;;;7.38;;
61407;SDS011;47274;43.054;25.146;2023-06-22T04:36:34;13.93;;;7.05;;
61407;SDS011;47274;43.054;25.146;2023-06-22T04:39:06;12.80;;;6.82;;
61407;SDS011;47274;43.054;25.146;2023-06-22T04:41:35;14.63;;;7.55;;
61407;SDS011;47274;43.054;25.146;2023-06-22T04:44:15;13.45;;;7.35;;
61407;SDS011;47274;43.054;25.146;2023-06-22T04:46:53;14.07;;;7.05;;
61407;SDS011;47274;43.054;25.146;2023-06-22T04:49:25;11.98;;;6.75;;
61407;SDS011;47274;43.054;25.146;2023-06-22T04:52:02;14.95;;;7.05;;
61407;SDS011;47274;43.054;25.146;2023-06-22T04:54:29;12.37;;;7.33;;
61407;SDS011;47274;43.054;25.146;2023-06-22T04:56:59;10.93;;;6.47;;
61407;SDS011;47274;43.054;25.146;2023-06-22T04:59:29;13.23;;;7.20;;
61407;SDS011;47274;43.054;25.146;2023-06-22T05:01:58;16.52;;;7.70;;
61407;SDS011;47274;43.054;25.146;2023-06-22T05:04:26;12.90;;;7.00;;
61407;SDS011;47274;43.054;25.146;2023-06-22T05:07:01;9.80;;;6.32;;
61407;SDS011;47274;43.054;25.146;2023-06-22T05:09:30;13.38;;;7.15;;
61407;SDS011;47274;43.054;25.146;2023-06-22T05:11:59;13.13;;;7.17;;
61407;SDS011;47274;43.054;25.146;2023-06-22T05:14:27;11.80;;;6.75;;
61407;SDS011;47274;43.054;25.146;2023-06-22T05:16:58;15.30;;;7.32;;
61407;SDS011;47274;43.054;25.146;2023-06-22T05:19:24;12.60;;;7.22;;
61407;SDS011;47274;43.054;25.146;2023-06-22T05:21:56;12.10;;;6.78;;
61407;SDS011;47274;43.054;25.146;2023-06-22T05:24:22;13.50;;;7.20;;
61407;SDS011;47274;43.054;25.146;2023-06-22T05:26:48;12.30;;;6.90;;
61407;SDS011;47274;43.054;25.146;2023-06-22T05:29:14;11.80;;;6.80;;
61407;SDS011;47274;43.054;25.146;2023-06-22T05:31:43;11.10;;;6.95;;
61407;SDS011;47274;43.054;25.146;2023-06-22T05:34:09;10.70;;;6.50;;
61407;SDS011;47274;43.054;25.146;2023-06-22T05:36:35;12.23;;;7.30;;
61407;SDS011;47274;43.054;25.146;2023-06-22T05:39:10;11.77;;;6.53;;
61407;SDS011;47274;43.054;25.146;2023-06-22T05:41:44;12.25;;;6.72;;
61407;SDS011;47274;43.054;25.146;2023-06-22T05:44:14;14.50;;;8.13;;
61407;SDS011;47274;43.054;25.146;2023-06-22T05:46:40;11.55;;;6.68;;
61407;SDS011;47274;43.054;25.146;2023-06-22T05:49:13;10.75;;;6.50;;
61407;SDS011;47274;43.054;25.146;2023-06-22T05:51:40;12.93;;;6.65;;
61407;SDS011;47274;43.054;25.146;2023-06-22T05:54:17;14.52;;;7.40;;
61407;SDS011;47274;43.054;25.146;2023-06-22T05:56:48;11.48;;;6.60;;
61407;SDS011;47274;43.054;25.146;2023-06-22T05:59:21;12.98;;;6.55;;
61407;SDS011;47274;43.054;25.146;2023-06-22T06:01:51;11.38;;;6.80;;
61407;SDS011;47274;43.054;25.146;2023-06-22T06:04:20;12.80;;;7.15;;
61407;SDS011;47274;43.054;25.146;2023-06-22T06:06:46;13.57;;;7.30;;
61407;SDS011;47274;43.054;25.146;2023-06-22T06:09:13;13.13;;;6.88;;
61407;SDS011;47274;43.054;25.146;2023-06-22T06:11:40;11.50;;;6.97;;
61407;SDS011;47274;43.054;25.146;2023-06-22T06:14:08;12.18;;;6.97;;
61407;SDS011;47274;43.054;25.146;2023-06-22T06:16:35;12.30;;;7.10;;
61407;SDS011;47274;43.054;25.146;2023-06-22T13:19:02;13.70;;;7.65;;
61407;SDS011;47274;43.054;25.146;2023-06-22T13:21:30;17.10;;;7.45;;
61407;SDS011;47274;43.054;25.146;2023-06-22T13:23:57;20.42;;;8.13;;
61407;SDS011;47274;43.054;25.146;2023-06-22T13:26:26;11.43;;;7.13;;
61407;SDS011;47274;43.054;25.146;2023-06-22T13:29:04;12.30;;;7.63;;
61407;SDS011;47274;43.054;25.146;2023-06-22T13:31:30;12.43;;;7.05;;
61407;SDS011;47274;43.054;25.146;2023-06-22T13:33:56;11.27;;;7.15;;
61407;SDS011;47274;43.054;25.146;2023-06-22T13:36:29;10.75;;;6.82;;
61407;SDS011;47274;43.054;25.146;2023-06-22T13:38:58;8.70;;;5.95;;
61407;SDS011;47274;43.054;25.146;2023-06-22T13:41:24;9.45;;;6.22;;
61407;SDS011;47274;43.054;25.146;2023-06-22T13:43:51;9.57;;;6.60;;
61407;SDS011;47274;43.054;25.146;2023-06-22T13:46:17;11.13;;;6.50;;
61407;SDS011;47274;43.054;25.146;2023-06-22T13:48:43;10.45;;;6.47;;
61407;SDS011;47274;43.054;25.146;2023-06-22T13:51:09;11.77;;;7.05;;
61407;SDS011;47274;43.054;25.146;2023-06-22T13:53:37;10.88;;;6.90;;
61407;SDS011;47274;43.054;25.146;2023-06-22T13:56:10;12.48;;;7.00;;
61407;SDS011;47274;43.054;25.146;2023-06-22T13:58:38;12.52;;;7.25;;
61407;SDS011;47274;43.054;25.146;2023-06-22T14:01:04;9.85;;;6.78;;
61407;SDS011;47274;43.054;25.146;2023-06-22T14:03:33;11.27;;;6.90;;
61407;SDS011;47274;43.054;25.146;2023-06-22T14:06:01;10.73;;;6.40;;
61407;SDS011;47274;43.054;25.146;2023-06-22T14:08:27;11.25;;;6.10;;
61407;SDS011;47274;43.054;25.146;2023-06-22T14:10:56;10.40;;;6.70;;
61407;SDS011;47274;43.054;25.146;2023-06-22T14:13:22;8.85;;;5.90;;
61407;SDS011;47274;43.054;25.146;2023-06-22T14:15:48;10.77;;;6.70;;
61407;SDS011;47274;43.054;25.146;2023-06-22T14:18:14;9.75;;;6.03;;
61407;SDS011;47274;43.054;25.146;2023-06-22T14:20:40;9.52;;;6.03;;
61407;SDS011;47274;43.054;25.146;2023-06-22T14:23:09;10.57;;;6.68;;
61407;SDS011;47274;43.054;25.146;2023-06-22T14:25:35;12.68;;;6.72;;
61407;SDS011;47274;43.054;25.146;2023-06-22T14:28:01;9.30;;;6.25;;
61407;SDS011;47274;43.054;25.146;2023-06-22T14:30:27;10.52;;;6.65;;
61407;SDS011;47274;43.054;25.146;2023-06-22T14:32:56;12.60;;;6.68;;
61407;SDS011;47274;43.054;25.146;2023-06-22T14:35:24;14.32;;;6.78;;
61407;SDS011;47274;43.054;25.146;2023-06-22T14:37:50;15.52;;;8.15;;
61407;SDS011;47274;43.054;25.146;2023-06-22T14:40:16;12.43;;;6.95;;
61407;SDS011;47274;43.054;25.146;2023-06-22T14:42:42;13.77;;;6.68;;
61407;SDS011;47274;43.054;25.146;2023-06-22T14:45:08;11.13;;;6.40;;
61407;SDS011;47274;43.054;25.146;2023-06-22T14:47:34;9.70;;;6.25;;
61407;SDS011;47274;43.054;25.146;2023-06-22T14:49:59;12.15;;;7.30;;
61407;SDS011;47274;43.054;25.146;2023-06-22T14:52:28;12.98;;;6.65;;
61407;SDS011;47274;43.054;25.146;2023-06-22T14:54:53;10.07;;;6.60;;
61407;SDS011;47274;43.054;25.146;2023-06-22T14:57:22;11.75;;;6.75;;
61407;SDS011;47274;43.054;25.146;2023-06-22T14:59:51;11.10;;;6.00;;
61407;SDS011;47274;43.054;25.146;2023-06-22T15:02:17;11.98;;;6.40;;
61407;SDS011;47274;43.054;25.146;2023-06-22T15:04:43;13.60;;;7.05;;
61407;SDS011;47274;43.054;25.146;2023-06-22T15:07:08;14.23;;;8.65;;
61407;SDS011;47274;43.054;25.146;2023-06-22T15:09:34;16.45;;;8.77;;
61407;SDS011;47274;43.054;25.146;2023-06-22T15:12:03;16.45;;;9.13;;
61407;SDS011;47274;43.054;25.146;2023-06-22T15:14:42;14.82;;;8.15;;
61407;SDS011;47274;43.054;25.146;2023-06-22T15:17:09;15.63;;;7.65;;
61407;SDS011;47274;43.054;25.146;2023-06-22T15:19:36;15.15;;;7.68;;
61407;SDS011;47274;43.054;25.146;2023-06-22T15:22:13;12.52;;;7.55;;
61407;SDS011;47274;43.054;25.146;2023-06-22T15:24:39;15.38;;;8.80;;
61407;SDS011;47274;43.054;25.146;2023-06-22T15:27:05;15.07;;;8.48;;
61407;SDS011;47274;43.054;25.146;2023-06-22T15:29:31;14.82;;;8.05;;
61407;SDS011;47274;43.054;25.146;2023-06-22T15:31:59;15.68;;;8.45;;
61407;SDS011;47274;43.054;25.146;2023-06-22T15:34:25;15.85;;;9.02;;
61407;SDS011;47274;43.054;25.146;2023-06-22T15:36:51;14.90;;;8.35;;
61407;SDS011;47274;43.054;25.146;2023-06-22T15:39:19;15.20;;;8.25;;
61407;SDS011;47274;43.054;25.146;2023-06-22T15:41:45;13.05;;;7.57;;
61407;SDS011;47274;43.054;25.146;2023-06-22T15:44:10;15.75;;;8.52;;
61407;SDS011;47274;43.054;25.146;2023-06-22T15:46:36;12.30;;;7.35;;
61407;SDS011;47274;43.054;25.146;2023-06-22T15:49:02;15.30;;;8.18;;
61407;SDS011;47274;43.054;25.146;2023-06-22T15:51:28;13.52;;;7.95;;
61407;SDS011;47274;43.054;25.146;2023-06-22T15:53:53;14.57;;;7.75;;
61407;SDS011;47274;43.054;25.146;2023-06-22T15:56:20;14.82;;;8.60;;
61407;SDS011;47274;43.054;25.146;2023-06-22T15:58:46;17.33;;;9.55;;
61407;SDS011;47274;43.054;25.146;2023-06-22T16:01:11;15.43;;;7.90;;
61407;SDS011;47274;43.054;25.146;2023-06-22T16:03:37;13.85;;;7.68;;
61407;SDS011;47274;43.054;25.146;2023-06-22T16:06:04;16.95;;;7.95;;
61407;SDS011;47274;43.054;25.146;2023-06-22T16:08:29;15.95;;;9.00;;
61407;SDS011;47274;43.054;25.146;2023-06-22T16:10:56;17.75;;;9.40;;
61407;SDS011;47274;43.054;25.146;2023-06-22T16:13:22;13.75;;;7.60;;
61407;SDS011;47274;43.054;25.146;2023-06-22T16:15:48;14.68;;;8.05;;
61407;SDS011;47274;43.054;25.146;2023-06-22T16:18:13;14.75;;;7.72;;
61407;SDS011;47274;43.054;25.146;2023-06-22T16:20:41;18.63;;;9.27;;
61407;SDS011;47274;43.054;25.146;2023-06-22T16:23:09;15.73;;;7.72;;
61407;SDS011;47274;43.054;25.146;2023-06-22T16:25:34;13.35;;;7.38;;
61407;SDS011;47274;43.054;25.146;2023-06-22T16:28:02;15.98;;;8.55;;
61407;SDS011;47274;43.054;25.146;2023-06-22T16:30:28;16.85;;;8.00;;
61407;SDS011;47274;43.054;25.146;2023-06-22T16:32:55;14.35;;;7.63;;
61407;SDS011;47274;43.054;25.146;2023-06-22T16:35:27;13.57;;;7.65;;
61407;SDS011;47274;43.054;25.146;2023-06-22T16:37:54;14.57;;;7.68;;
61407;SDS011;47274;43.054;25.146;2023-06-22T16:40:21;13.82;;;7.53;;
61407;SDS011;47274;43.054;25.146;2023-06-22T16:42:48;13.45;;;7.38;;
61407;SDS011;47274;43.054;25.146;2023-06-22T16:45:14;13.02;;;6.80;;
61407;SDS011;47274;43.054;25.146;2023-06-22T16:47:41;13.35;;;7.30;;
61407;SDS011;47274;43.054;25.146;2023-06-22T16:50:10;14.35;;;8.05;;
61407;SDS011;47274;43.054;25.146;2023-06-22T16:52:36;14.93;;;8.45;;
61407;SDS011;47274;43.054;25.146;2023-06-22T16:55:03;16.75;;;8.10;;
61407;SDS011;47274;43.054;25.146;2023-06-22T16:57:30;14.75;;;7.78;;
61407;SDS011;47274;43.054;25.146;2023-06-22T16:59:56;15.88;;;7.85;;
61407;SDS011;47274;43.054;25.146;2023-06-22T17:02:24;16.70;;;8.63;;
61407;SDS011;47274;43.054;25.146;2023-06-22T17:04:51;15.02;;;7.63;;
61407;SDS011;47274;43.054;25.146;2023-06-22T17:07:25;14.98;;;7.70;;
61407;SDS011;47274;43.054;25.146;2023-06-22T17:09:52;15.98;;;7.95;;
61407;SDS011;47274;43.054;25.146;2023-06-22T17:12:21;14.02;;;7.78;;
61407;SDS011;47274;43.054;25.146;2023-06-22T17:14:50;13.80;;;7.57;;
61407;SDS011;47274;43.054;25.146;2023-06-22T17:17:17;15.55;;;7.45;;
61407;SDS011;47274;43.054;25.146;2023-06-22T17:19:44;16.13;;;8.20;;
61407;SDS011;47274;43.054;25.146;2023-06-22T17:22:10;17.17;;;8.60;;
61407;SDS011;47274;43.054;25.146;2023-06-22T17:24:37;16.98;;;8.68;;
61407;SDS011;47274;43.054;25.146;2023-06-22T17:27:05;16.77;;;8.80;;
61407;SDS011;47274;43.054;25.146;2023-06-22T17:29:32;17.95;;;9.43;;
61407;SDS011;47274;43.054;25.146;2023-06-22T17:32:00;16.92;;;9.02;;
61407;SDS011;47274;43.054;25.146;2023-06-22T17:34:28;17.73;;;9.23;;
61407;SDS011;47274;43.054;25.146;2023-06-22T17:36:55;16.67;;;9.00;;
61407;SDS011;47274;43.054;25.146;2023-06-22T17:39:22;15.65;;;8.75;;
61407;SDS011;47274;43.054;25.146;2023-06-22T17:41:50;13.77;;;7.85;;
61407;SDS011;47274;43.054;25.146;2023-06-22T17:44:25;15.50;;;8.10;;
61407;SDS011;47274;43.054;25.146;2023-06-22T17:46:52;14.48;;;7.80;;
61407;SDS011;47274;43.054;25.146;2023-06-22T17:49:25;18.08;;;8.02;;
61407;SDS011;47274;43.054;25.146;2023-06-22T17:51:56;15.77;;;8.82;;
61407;SDS011;47274;43.054;25.146;2023-06-22T17:54:22;16.27;;;8.70;;
61407;SDS011;47274;43.054;25.146;2023-06-22T17:56:51;16.60;;;9.20;;
61407;SDS011;47274;43.054;25.146;2023-06-22T17:59:20;15.73;;;8.18;;
61407;SDS011;47274;43.054;25.146;2023-06-22T18:01:46;16.00;;;8.48;;
61407;SDS011;47274;43.054;25.146;2023-06-22T18:04:13;18.63;;;9.30;;
61407;SDS011;47274;43.054;25.146;2023-06-22T18:06:42;19.17;;;9.32;;
61407;SDS011;47274;43.054;25.146;2023-06-22T18:09:10;16.08;;;8.77;;
61407;SDS011;47274;43.054;25.146;2023-06-22T18:11:47;15.77;;;8.48;;
61407;SDS011;47274;43.054;25.146;2023-06-22T18:14:17;18.20;;;9.43;;
61407;SDS011;47274;43.054;25.146;2023-06-22T18:16:45;17.65;;;8.60;;
61407;SDS011;47274;43.054;25.146;2023-06-22T18:19:15;14.77;;;7.95;;
61407;SDS011;47274;43.054;25.146;2023-06-22T18:21:46;16.88;;;9.15;;
61407;SDS011;47274;43.054;25.146;2023-06-22T18:24:13;16.13;;;8.88;;
61407;SDS011;47274;43.054;25.146;2023-06-22T18:26:40;16.70;;;8.75;;
61407;SDS011;47274;43.054;25.146;2023-06-22T18:29:07;17.15;;;8.85;;
61407;SDS011;47274;43.054;25.146;2023-06-22T18:31:34;17.08;;;9.07;;
61407;SDS011;47274;43.054;25.146;2023-06-22T18:34:00;16.02;;;8.60;;
61407;SDS011;47274;43.054;25.146;2023-06-22T18:36:29;17.23;;;8.98;;
61407;SDS011;47274;43.054;25.146;2023-06-22T18:39:02;17.15;;;9.23;;
61407;SDS011;47274;43.054;25.146;2023-06-22T18:41:33;16.98;;;8.88;;
61407;SDS011;47274;43.054;25.146;2023-06-22T18:43:59;15.82;;;8.77;;
61407;SDS011;47274;43.054;25.146;2023-06-22T18:46:32;17.33;;;8.52;;
61407;SDS011;47274;43.054;25.146;2023-06-22T18:49:21;14.98;;;8.13;;
61407;SDS011;47274;43.054;25.146;2023-06-22T18:57:21;16.92;;;9.10;;
61407;SDS011;47274;43.054;25.146;2023-06-22T19:05:38;17.80;;;9.82;;
61407;SDS011;47274;43.054;25.146;2023-06-22T19:08:05;18.80;;;9.32;;
61407;SDS011;47274;43.054;25.146;2023-06-22T19:15:42;16.50;;;8.93;;
61407;SDS011;47274;43.054;25.146;2023-06-22T19:18:16;18.48;;;9.88;;
61407;SDS011;47274;43.054;25.146;2023-06-22T19:20:51;18.73;;;9.88;;
61407;SDS011;47274;43.054;25.146;2023-06-22T19:23:37;16.65;;;9.70;;
61407;SDS011;47274;43.054;25.146;2023-06-22T19:26:08;18.42;;;9.55;;
61407;SDS011;47274;43.054;25.146;2023-06-22T19:28:43;17.80;;;9.48;;
61407;SDS011;47274;43.054;25.146;2023-06-22T19:31:14;18.00;;;9.35;;
61407;SDS011;47274;43.054;25.146;2023-06-22T19:33:44;19.17;;;9.80;;
61407;SDS011;47274;43.054;25.146;2023-06-22T19:36:10;21.17;;;10.48;;
61407;SDS011;47274;43.054;25.146;2023-06-22T19:38:39;18.40;;;9.88;;
61407;SDS011;47274;43.054;25.146;2023-06-22T19:41:08;17.08;;;9.25;;
61407;SDS011;47274;43.054;25.146;2023-06-22T19:43:35;16.90;;;9.45;;
61407;SDS011;47274;43.054;25.146;2023-06-22T19:46:04;17.92;;;9.55;;
61407;SDS011;47274;43.054;25.146;2023-06-22T19:48:30;19.35;;;10.43;;
61407;SDS011;47274;43.054;25.146;2023-06-22T19:51:03;17.42;;;9.20;;
61407;SDS011;47274;43.054;25.146;2023-06-22T19:53:32;17.55;;;8.93;;
61407;SDS011;47274;43.054;25.146;2023-06-22T19:55:58;16.02;;;8.65;;
61407;SDS011;47274;43.054;25.146;2023-06-22T19:58:26;17.48;;;9.20;;
61407;SDS011;47274;43.054;25.146;2023-06-22T20:00:55;14.48;;;8.13;;
61407;SDS011;47274;43.054;25.146;2023-06-22T20:03:39;18.05;;;9.27;;
61407;SDS011;47274;43.054;25.146;2023-06-22T20:06:13;19.35;;;9.60;;
61407;SDS011;47274;43.054;25.146;2023-06-22T20:08:48;18.40;;;10.02;;
61407;SDS011;47274;43.054;25.146;2023-06-22T20:11:15;17.35;;;8.48;;
61407;SDS011;47274;43.054;25.146;2023-06-22T20:13:55;17.10;;;9.32;;
61407;SDS011;47274;43.054;25.146;2023-06-22T20:16:21;16.23;;;8.82;;
61407;SDS011;47274;43.054;25.146;2023-06-22T20:18:48;15.65;;;8.75;;
61407;SDS011;47274;43.054;25.146;2023-06-22T20:21:27;17.90;;;9.38;;
61407;SDS011;47274;43.054;25.146;2023-06-22T20:23:55;17.70;;;9.40;;
61407;SDS011;47274;43.054;25.146;2023-06-22T20:26:44;18.27;;;8.98;;
61407;SDS011;47274;43.054;25.146;2023-06-22T20:32:06;18.08;;;9.13;;
61407;SDS011;47274;43.054;25.146;2023-06-22T20:34:37;16.27;;;8.93;;
61407;SDS011;47274;43.054;25.146;2023-06-22T20:37:04;18.85;;;9.35;;
61407;SDS011;47274;43.054;25.146;2023-06-22T20:39:33;18.52;;;9.55;;
61407;SDS011;47274;43.054;25.146;2023-06-22T20:41:59;19.83;;;10.48;;
61407;SDS011;47274;43.054;25.146;2023-06-22T20:44:25;17.48;;;9.75;;
61407;SDS011;47274;43.054;25.146;2023-06-22T20:46:51;18.88;;;10.57;;
61407;SDS011;47274;43.054;25.146;2023-06-22T20:49:17;19.77;;;10.00;;
61407;SDS011;47274;43.054;25.146;2023-06-22T20:51:43;19.63;;;10.77;;
61407;SDS011;47274;43.054;25.146;2023-06-22T20:54:09;19.20;;;10.35;;
61407;SDS011;47274;43.054;25.146;2023-06-22T20:56:35;21.33;;;11.23;;
61407;SDS011;47274;43.054;25.146;2023-06-22T20:59:01;19.52;;;10.50;;
61407;SDS011;47274;43.054;25.146;2023-06-22T21:01:27;21.33;;;11.85;;
61407;SDS011;47274;43.054;25.146;2023-06-22T21:04:01;19.38;;;11.27;;
61407;SDS011;47274;43.054;25.146;2023-06-22T21:06:34;20.20;;;11.80;;
61407;SDS011;47274;43.054;25.146;2023-06-22T21:09:00;20.30;;;12.18;;
61407;SDS011;47274;43.054;25.146;2023-06-22T21:11:26;18.98;;;11.38;;
61407;SDS011;47274;43.054;25.146;2023-06-22T21:13:52;19.15;;;11.23;;
61407;SDS011;47274;43.054;25.146;2023-06-22T21:16:18;20.48;;;12.27;;
61407;SDS011;47274;43.054;25.146;2023-06-22T21:18:44;20.08;;;11.85;;
61407;SDS011;47274;43.054;25.146;2023-06-22T21:21:10;19.55;;;11.98;;
61407;SDS011;47274;43.054;25.146;2023-06-22T21:23:36;20.70;;;12.93;;
61407;SDS011;47274;43.054;25.146;2023-06-22T21:26:02;21.08;;;12.57;;
61407;SDS011;47274;43.054;25.146;2023-06-22T21:28:28;22.63;;;12.75;;
61407;SDS011;47274;43.054;25.146;2023-06-22T21:30:53;20.77;;;11.93;;
61407;SDS011;47274;43.054;25.146;2023-06-22T21:33:20;20.13;;;12.32;;
61407;SDS011;47274;43.054;25.146;2023-06-22T21:35:51;20.13;;;12.23;;
61407;SDS011;47274;43.054;25.146;2023-06-22T21:38:20;21.75;;;12.18;;
61407;SDS011;47274;43.054;25.146;2023-06-22T21:40:45;20.05;;;12.35;;
61407;SDS011;47274;43.054;25.146;2023-06-22T21:43:14;19.77;;;11.73;;
61407;SDS011;47274;43.054;25.146;2023-06-22T21:45:43;19.88;;;12.57;;
61407;SDS011;47274;43.054;25.146;2023-06-22T21:48:12;21.88;;;13.90;;
61407;SDS011;47274;43.054;25.146;2023-06-22T21:50:37;20.02;;;11.82;;
61407;SDS011;47274;43.054;25.146;2023-06-22T21:53:03;19.58;;;12.38;;
61407;SDS011;47274;43.054;25.146;2023-06-22T21:55:29;19.98;;;12.07;;
61407;SDS011;47274;43.054;25.146;2023-06-22T21:57:55;20.08;;;12.23;;
61407;SDS011;47274;43.054;25.146;2023-06-22T22:00:21;21.70;;;12.57;;
61407;SDS011;47274;43.054;25.146;2023-06-22T22:02:47;22.33;;;12.30;;
61407;SDS011;47274;43.054;25.146;2023-06-22T22:05:14;20.83;;;12.82;;